createdAt,value
2018-11-22T00:00:01.995Z,0.00
2018-11-22T00:01:01.984Z,0.00
2018-11-22T00:02:01.968Z,0.00
2018-11-22T00:03:01.959Z,0.00
2018-11-22T00:04:01.951Z,0.00
2018-11-22T00:05:01.941Z,0.00
2018-11-22T00:06:01.930Z,0.00
2018-11-22T00:07:01.920Z,0.00
2018-11-22T00:08:01.904Z,0.00
2018-11-22T00:09:01.891Z,0.00
2018-11-22T00:10:01.879Z,0.00
2018-11-22T00:11:01.870Z,0.00
2018-11-22T00:12:01.865Z,0.00
2018-11-22T00:13:01.853Z,0.00
2018-11-22T00:14:01.841Z,0.00
2018-11-22T00:15:01.830Z,0.00
2018-11-22T00:16:01.816Z,0.00
2018-11-22T00:17:01.805Z,0.00
2018-11-22T00:18:01.797Z,0.00
2018-11-22T00:19:01.785Z,0.00
2018-11-22T00:20:01.771Z,0.00
2018-11-22T00:21:01.764Z,0.00
2018-11-22T00:22:01.749Z,0.00
2018-11-22T00:23:01.737Z,0.00
2018-11-22T00:24:01.733Z,0.00
2018-11-22T00:25:01.721Z,0.00
2018-11-22T00:26:01.750Z,0.00
2018-11-22T00:27:01.698Z,0.00
2018-11-22T00:28:01.683Z,0.00
2018-11-22T00:29:01.673Z,0.00
2018-11-22T00:30:01.661Z,0.00
2018-11-22T00:31:01.651Z,0.00
2018-11-22T00:32:01.644Z,0.00
2018-11-22T00:33:01.633Z,0.00
2018-11-22T00:34:01.617Z,0.00
2018-11-22T00:35:01.607Z,0.00
2018-11-22T00:36:01.601Z,0.00
2018-11-22T00:37:01.588Z,0.00
2018-11-22T00:38:01.579Z,0.00
2018-11-22T00:39:01.572Z,0.00
2018-11-22T00:40:01.555Z,0.00
2018-11-22T00:41:01.542Z,0.00
2018-11-22T00:42:01.530Z,0.00
2018-11-22T00:43:01.519Z,0.00
2018-11-22T00:44:01.513Z,0.00
2018-11-22T00:45:01.502Z,0.00
2018-11-22T00:46:01.489Z,0.00
2018-11-22T00:47:01.479Z,0.00
2018-11-22T00:48:01.463Z,0.00
2018-11-22T00:49:01.453Z,0.00
2018-11-22T00:50:01.447Z,0.00
2018-11-22T00:51:01.441Z,0.00
2018-11-22T00:52:01.421Z,0.00
2018-11-22T00:53:01.409Z,0.00
2018-11-22T00:54:01.399Z,0.00
2018-11-22T00:55:01.389Z,0.00
2018-11-22T00:56:01.380Z,0.00
2018-11-22T00:57:01.370Z,0.00
2018-11-22T00:58:01.360Z,0.00
2018-11-22T00:59:01.347Z,0.00
2018-11-22T01:00:01.331Z,0.00
2018-11-22T01:01:01.345Z,0.00
2018-11-22T01:02:01.311Z,0.00
2018-11-22T01:03:01.298Z,0.00
2018-11-22T01:04:01.293Z,0.00
2018-11-22T01:05:01.281Z,0.00
2018-11-22T01:06:01.265Z,0.00
2018-11-22T01:07:01.256Z,0.00
2018-11-22T01:08:01.248Z,0.00
2018-11-22T01:09:01.247Z,0.00
2018-11-22T01:10:01.227Z,0.00
2018-11-22T01:11:01.216Z,0.00
2018-11-22T01:12:01.200Z,0.00
2018-11-22T01:13:01.195Z,0.00
2018-11-22T01:14:01.178Z,0.00
2018-11-22T01:15:01.171Z,0.00
2018-11-22T01:16:01.168Z,0.00
2018-11-22T01:17:01.151Z,0.00
2018-11-22T01:18:01.140Z,0.00
2018-11-22T01:19:01.127Z,0.00
2018-11-22T01:20:01.116Z,0.00
2018-11-22T01:21:01.101Z,0.00
2018-11-22T01:22:01.094Z,0.00
2018-11-22T01:23:01.083Z,0.00
2018-11-22T01:24:01.068Z,0.00
2018-11-22T01:25:01.057Z,0.00
2018-11-22T01:26:01.047Z,0.00
2018-11-22T01:27:01.036Z,0.00
2018-11-22T01:28:01.029Z,0.00
2018-11-22T01:29:01.019Z,0.00
2018-11-22T01:30:01.007Z,0.00
2018-11-22T01:31:00.997Z,0.00
2018-11-22T01:32:00.981Z,0.00
2018-11-22T01:33:00.969Z,0.00
2018-11-22T01:34:00.958Z,0.00
2018-11-22T01:35:00.949Z,0.00
2018-11-22T01:36:00.944Z,0.00
2018-11-22T01:37:00.933Z,0.00
2018-11-22T01:38:00.914Z,0.00
2018-11-22T01:39:00.904Z,0.00
2018-11-22T01:40:00.897Z,0.00
2018-11-22T01:41:00.887Z,0.00
2018-11-22T01:42:00.875Z,0.00
2018-11-22T01:43:00.865Z,0.00
2018-11-22T01:44:00.850Z,0.00
2018-11-22T01:45:00.843Z,0.00
2018-11-22T01:46:00.827Z,0.00
2018-11-22T01:47:00.817Z,0.00
2018-11-22T01:48:00.810Z,0.00
2018-11-22T01:49:00.799Z,0.00
2018-11-22T01:50:00.789Z,0.00
2018-11-22T01:51:00.778Z,0.00
2018-11-22T01:52:00.765Z,0.00
2018-11-22T01:53:00.753Z,0.00
2018-11-22T01:54:00.745Z,0.00
2018-11-22T01:55:00.734Z,0.00
2018-11-22T01:56:00.720Z,0.00
2018-11-22T01:57:00.715Z,0.00
2018-11-22T01:58:00.699Z,0.00
2018-11-22T01:59:00.686Z,0.00
2018-11-22T02:00:00.680Z,0.00
2018-11-22T02:01:00.674Z,0.00
2018-11-22T02:02:00.659Z,0.00
2018-11-22T02:03:00.649Z,0.00
2018-11-22T02:04:00.632Z,0.00
2018-11-22T02:05:00.624Z,0.00
2018-11-22T02:06:00.612Z,0.00
2018-11-22T02:07:00.602Z,0.00
2018-11-22T02:08:00.602Z,0.00
2018-11-22T02:09:00.584Z,0.00
2018-11-22T02:10:00.566Z,0.00
2018-11-22T02:11:00.556Z,0.00
2018-11-22T02:12:00.550Z,0.00
2018-11-22T02:13:00.540Z,0.00
2018-11-22T02:14:00.527Z,0.00
2018-11-22T02:15:00.516Z,0.00
2018-11-22T02:16:00.502Z,0.00
2018-11-22T02:17:00.493Z,0.00
2018-11-22T02:18:00.480Z,0.00
2018-11-22T02:19:00.470Z,0.00
2018-11-22T02:20:00.464Z,0.00
2018-11-22T02:21:00.454Z,0.00
2018-11-22T02:22:00.442Z,0.00
2018-11-22T02:23:00.432Z,0.00
2018-11-22T02:24:00.417Z,0.00
2018-11-22T02:25:00.405Z,0.00
2018-11-22T02:26:00.399Z,0.00
2018-11-22T02:27:00.387Z,0.00
2018-11-22T02:28:00.372Z,0.00
2018-11-22T02:29:00.363Z,0.00
2018-11-22T02:30:00.351Z,0.00
2018-11-22T02:31:00.341Z,0.00
2018-11-22T02:32:00.333Z,0.00
2018-11-22T02:33:00.324Z,0.00
2018-11-22T02:34:00.312Z,0.00
2018-11-22T02:35:00.304Z,0.00
2018-11-22T02:36:00.285Z,0.00
2018-11-22T02:37:00.275Z,0.00
2018-11-22T02:38:00.265Z,0.00
2018-11-22T02:39:00.253Z,0.00
2018-11-22T02:40:00.250Z,0.00
2018-11-22T02:41:00.237Z,0.00
2018-11-22T02:42:00.220Z,0.00
2018-11-22T02:43:00.209Z,0.00
2018-11-22T02:44:00.204Z,0.00
2018-11-22T02:45:00.193Z,0.00
2018-11-22T02:46:00.182Z,0.00
2018-11-22T02:47:00.172Z,0.00
2018-11-22T02:48:00.155Z,0.00
2018-11-22T02:49:00.144Z,0.00
2018-11-22T02:50:00.137Z,0.00
2018-11-22T02:51:00.124Z,0.00
2018-11-22T02:52:00.116Z,0.00
2018-11-22T02:53:00.108Z,0.00
2018-11-22T02:54:00.093Z,0.00
2018-11-22T02:55:00.096Z,0.00
2018-11-22T02:56:00.067Z,0.00
2018-11-22T02:57:00.059Z,0.00
2018-11-22T02:58:00.054Z,0.00
2018-11-22T02:59:00.038Z,0.00
2018-11-22T03:00:00.039Z,0.00
2018-11-22T03:01:00.027Z,0.00
2018-11-22T03:02:00.000Z,0.00
2018-11-22T03:02:59.989Z,0.00
2018-11-22T03:03:59.984Z,0.00
2018-11-22T03:04:59.972Z,0.00
2018-11-22T03:05:59.961Z,0.00
2018-11-22T03:06:59.950Z,0.00
2018-11-22T03:07:59.935Z,0.00
2018-11-22T03:08:59.925Z,0.00
2018-11-22T03:09:59.912Z,0.00
2018-11-22T03:10:59.900Z,0.00
2018-11-22T03:11:59.893Z,0.00
2018-11-22T03:12:59.883Z,0.00
2018-11-22T03:13:59.867Z,0.00
2018-11-22T03:14:59.855Z,0.00
2018-11-22T03:15:59.848Z,0.00
2018-11-22T03:16:59.838Z,0.00
2018-11-22T03:17:59.830Z,0.00
2018-11-22T03:18:59.822Z,0.00
2018-11-22T03:19:59.802Z,0.00
2018-11-22T03:20:59.790Z,0.00
2018-11-22T03:21:59.781Z,0.00
2018-11-22T03:22:59.767Z,0.00
2018-11-22T03:23:59.762Z,0.00
2018-11-22T03:24:59.750Z,0.00
2018-11-22T03:25:59.737Z,0.00
2018-11-22T03:26:59.727Z,0.00
2018-11-22T03:27:59.711Z,0.00
2018-11-22T03:28:59.704Z,0.00
2018-11-22T03:29:59.694Z,0.00
2018-11-22T03:30:59.682Z,0.00
2018-11-22T03:31:59.668Z,0.00
2018-11-22T03:32:59.657Z,0.00
2018-11-22T03:33:59.645Z,0.00
2018-11-22T03:34:59.638Z,0.00
2018-11-22T03:35:59.626Z,0.00
2018-11-22T03:36:59.616Z,0.00
2018-11-22T03:37:59.605Z,0.00
2018-11-22T03:38:59.594Z,0.00
2018-11-22T03:39:59.578Z,0.00
2018-11-22T03:40:59.577Z,0.00
2018-11-22T03:41:59.557Z,0.00
2018-11-22T03:42:59.542Z,0.00
2018-11-22T03:43:59.537Z,0.00
2018-11-22T03:44:59.525Z,0.00
2018-11-22T03:45:59.523Z,0.00
2018-11-22T03:46:59.497Z,0.00
2018-11-22T03:47:59.492Z,0.00
2018-11-22T03:48:59.484Z,0.00
2018-11-22T03:49:59.468Z,0.00
2018-11-22T03:50:59.457Z,0.00
2018-11-22T03:51:59.442Z,0.00
2018-11-22T03:52:59.429Z,0.00
2018-11-22T03:53:59.420Z,0.00
2018-11-22T03:54:59.405Z,0.00
2018-11-22T03:55:59.400Z,0.00
2018-11-22T03:56:59.395Z,0.00
2018-11-22T03:57:59.377Z,0.00
2018-11-22T03:58:59.366Z,0.00
2018-11-22T03:59:59.351Z,0.00
2018-11-22T04:00:59.338Z,0.00
2018-11-22T04:01:59.331Z,0.00
2018-11-22T04:02:59.320Z,0.00
2018-11-22T04:03:59.307Z,0.00
2018-11-22T04:04:59.291Z,0.00
2018-11-22T04:05:59.280Z,0.00
2018-11-22T04:06:59.268Z,0.00
2018-11-22T04:07:59.263Z,0.00
2018-11-22T04:08:59.251Z,0.00
2018-11-22T04:09:59.238Z,0.00
2018-11-22T04:10:59.228Z,0.00
2018-11-22T04:11:59.211Z,0.00
2018-11-22T04:12:59.200Z,0.00
2018-11-22T04:13:59.188Z,0.00
2018-11-22T04:14:59.176Z,0.00
2018-11-22T04:15:59.173Z,0.00
2018-11-22T04:16:59.160Z,0.00
2018-11-22T04:17:59.144Z,0.00
2018-11-22T04:18:59.133Z,0.00
2018-11-22T04:19:59.125Z,0.00
2018-11-22T04:20:59.114Z,0.00
2018-11-22T04:21:59.101Z,0.00
2018-11-22T04:22:59.092Z,0.00
2018-11-22T04:23:59.074Z,0.00
2018-11-22T04:24:59.063Z,0.00
2018-11-22T04:25:59.065Z,0.00
2018-11-22T04:26:59.040Z,0.00
2018-11-22T04:27:59.033Z,0.00
2018-11-22T04:28:59.023Z,0.00
2018-11-22T04:29:59.011Z,0.00
2018-11-22T04:30:59.000Z,0.00
2018-11-22T04:31:58.983Z,0.00
2018-11-22T04:32:58.977Z,0.00
2018-11-22T04:33:58.965Z,0.00
2018-11-22T04:34:58.954Z,0.00
2018-11-22T04:35:58.938Z,0.00
2018-11-22T04:36:58.929Z,0.00
2018-11-22T04:37:58.914Z,0.00
2018-11-22T04:38:58.904Z,0.00
2018-11-22T04:39:58.896Z,0.00
2018-11-22T04:40:58.886Z,0.00
2018-11-22T04:41:58.875Z,0.00
2018-11-22T04:42:58.864Z,0.00
2018-11-22T04:43:58.846Z,0.00
2018-11-22T04:44:58.835Z,0.00
2018-11-22T04:45:58.824Z,0.00
2018-11-22T04:46:58.812Z,0.00
2018-11-22T04:47:58.807Z,0.00
2018-11-22T04:48:58.795Z,0.00
2018-11-22T04:49:58.780Z,0.00
2018-11-22T04:50:58.766Z,0.00
2018-11-22T04:51:58.761Z,0.00
2018-11-22T04:52:58.750Z,0.00
2018-11-22T04:53:58.736Z,0.00
2018-11-22T04:54:58.725Z,0.00
2018-11-22T04:55:58.710Z,0.00
2018-11-22T04:56:58.701Z,0.00
2018-11-22T04:57:58.699Z,0.00
2018-11-22T04:58:58.679Z,0.00
2018-11-22T04:59:58.664Z,0.00
2018-11-22T05:00:58.654Z,0.00
2018-11-22T05:01:58.641Z,0.00
2018-11-22T05:02:58.630Z,0.00
2018-11-22T05:03:58.627Z,0.00
2018-11-22T05:04:58.614Z,0.00
2018-11-22T05:05:58.597Z,0.00
2018-11-22T05:06:58.585Z,0.00
2018-11-22T05:07:58.584Z,0.00
2018-11-22T05:08:58.568Z,0.00
2018-11-22T05:09:58.555Z,0.00
2018-11-22T05:10:58.567Z,0.00
2018-11-22T05:11:58.529Z,0.00
2018-11-22T05:12:58.517Z,0.00
2018-11-22T05:13:58.506Z,0.00
2018-11-22T05:14:58.497Z,0.00
2018-11-22T05:15:58.487Z,0.00
2018-11-22T05:16:58.476Z,0.00
2018-11-22T05:17:58.466Z,0.00
2018-11-22T05:18:58.454Z,0.00
2018-11-22T05:19:58.439Z,0.00
2018-11-22T05:20:58.428Z,0.00
2018-11-22T05:21:58.420Z,0.00
2018-11-22T05:22:58.408Z,0.00
2018-11-22T05:23:58.392Z,0.00
2018-11-22T05:24:58.383Z,0.00
2018-11-22T05:25:58.369Z,0.00
2018-11-22T05:26:58.362Z,0.00
2018-11-22T05:27:58.351Z,0.00
2018-11-22T05:28:58.340Z,0.00
2018-11-22T05:29:58.329Z,0.00
2018-11-22T05:30:58.317Z,0.00
2018-11-22T05:31:58.301Z,0.00
2018-11-22T05:32:58.290Z,0.00
2018-11-22T05:33:58.278Z,0.00
2018-11-22T05:34:58.271Z,0.00
2018-11-22T05:35:58.262Z,0.00
2018-11-22T05:36:58.249Z,0.00
2018-11-22T05:37:58.235Z,0.00
2018-11-22T05:38:58.221Z,0.00
2018-11-22T05:39:58.215Z,0.00
2018-11-22T05:40:58.205Z,0.00
2018-11-22T05:41:58.194Z,0.00
2018-11-22T05:42:58.181Z,0.00
2018-11-22T05:43:58.166Z,0.00
2018-11-22T05:44:58.154Z,0.00
2018-11-22T05:45:58.142Z,0.00
2018-11-22T05:46:58.335Z,0.00
2018-11-22T05:47:58.124Z,0.00
2018-11-22T05:48:58.114Z,0.00
2018-11-22T05:49:58.102Z,0.00
2018-11-22T05:50:58.090Z,0.00
2018-11-22T05:51:58.076Z,0.00
2018-11-22T05:52:58.063Z,0.00
2018-11-22T05:53:58.057Z,0.00
2018-11-22T05:54:58.046Z,0.00
2018-11-22T05:55:58.029Z,0.00
2018-11-22T05:56:58.019Z,0.00
2018-11-22T05:57:58.006Z,0.00
2018-11-22T05:58:57.994Z,0.00
2018-11-22T05:59:57.988Z,0.00
2018-11-22T06:00:57.977Z,0.00
2018-11-22T06:01:57.968Z,0.00
2018-11-22T06:02:57.953Z,0.00
2018-11-22T06:03:57.939Z,0.00
2018-11-22T06:04:57.928Z,0.00
2018-11-22T06:05:57.917Z,0.00
2018-11-22T06:06:57.907Z,0.00
2018-11-22T06:07:57.897Z,0.00
2018-11-22T06:08:57.886Z,0.00
2018-11-22T06:09:57.870Z,0.00
2018-11-22T06:10:57.858Z,0.00
2018-11-22T06:11:57.852Z,0.00
2018-11-22T06:12:57.840Z,0.00
2018-11-22T06:13:57.829Z,0.00
2018-11-22T06:14:57.818Z,0.00
2018-11-22T06:15:57.802Z,0.00
2018-11-22T06:16:57.789Z,0.00
2018-11-22T06:17:57.779Z,0.00
2018-11-22T06:18:57.768Z,0.00
2018-11-22T06:19:57.760Z,0.00
2018-11-22T06:20:57.749Z,0.00
2018-11-22T06:21:57.736Z,0.00
2018-11-22T06:22:57.725Z,0.00
2018-11-22T06:23:57.710Z,0.00
2018-11-22T06:25:03.633Z,0.00
2018-11-22T06:25:57.691Z,0.00
2018-11-22T06:26:57.679Z,0.00
2018-11-22T06:27:57.664Z,0.00
2018-11-22T06:28:57.652Z,0.00
2018-11-22T06:29:57.641Z,0.00
2018-11-22T06:30:57.629Z,0.00
2018-11-22T06:31:57.624Z,0.00
2018-11-22T06:32:57.611Z,0.00
2018-11-22T06:33:57.600Z,0.00
2018-11-22T06:34:57.589Z,0.00
2018-11-22T06:35:57.571Z,0.00
2018-11-22T06:36:57.560Z,0.00
2018-11-22T06:37:57.548Z,0.00
2018-11-22T06:38:57.537Z,0.00
2018-11-22T06:39:57.531Z,0.00
2018-11-22T06:40:57.519Z,0.00
2018-11-22T06:41:57.502Z,0.00
2018-11-22T06:42:57.491Z,0.00
2018-11-22T06:43:57.488Z,0.00
2018-11-22T06:44:57.474Z,0.00
2018-11-22T06:45:57.462Z,0.00
2018-11-22T06:46:57.451Z,0.00
2018-11-22T06:47:57.435Z,0.00
2018-11-22T06:48:57.424Z,0.00
2018-11-22T06:49:57.411Z,0.00
2018-11-22T06:50:58.306Z,0.00
2018-11-22T06:51:57.394Z,0.00
2018-11-22T06:52:57.383Z,0.00
2018-11-22T06:53:57.370Z,0.00
2018-11-22T06:54:57.518Z,0.00
2018-11-22T06:55:57.345Z,0.00
2018-11-22T06:56:57.334Z,5.63
2018-11-22T06:57:57.324Z,5.63
2018-11-22T06:58:57.316Z,5.63
2018-11-22T06:59:57.298Z,5.63
2018-11-22T07:00:57.287Z,5.63
2018-11-22T07:01:57.274Z,5.63
2018-11-22T07:02:57.264Z,5.63
2018-11-22T07:03:57.258Z,5.63
2018-11-22T07:04:57.247Z,5.63
2018-11-22T07:05:57.233Z,5.63
2018-11-22T07:06:57.222Z,11.25
2018-11-22T07:07:57.207Z,11.25
2018-11-22T07:08:57.196Z,11.25
2018-11-22T07:09:57.184Z,11.25
2018-11-22T07:10:57.172Z,11.25
2018-11-22T07:11:57.173Z,11.25
2018-11-22T07:12:57.156Z,11.25
2018-11-22T07:13:57.141Z,11.25
2018-11-22T07:14:57.127Z,11.25
2018-11-22T07:15:57.125Z,16.88
2018-11-22T07:16:57.109Z,16.88
2018-11-22T07:17:57.096Z,16.88
2018-11-22T07:18:57.086Z,16.88
2018-11-22T07:19:57.070Z,16.88
2018-11-22T07:20:57.059Z,16.88
2018-11-22T07:21:57.047Z,16.88
2018-11-22T07:22:57.036Z,16.88
2018-11-22T07:23:57.036Z,16.88
2018-11-22T07:24:57.017Z,22.50
2018-11-22T07:25:57.007Z,22.50
2018-11-22T07:26:56.996Z,22.50
2018-11-22T07:27:56.979Z,22.50
2018-11-22T07:28:56.968Z,22.50
2018-11-22T07:29:56.962Z,22.50
2018-11-22T07:30:56.950Z,28.13
2018-11-22T07:31:56.935Z,28.13
2018-11-22T07:32:56.923Z,28.13
2018-11-22T07:33:56.911Z,33.75
2018-11-22T07:34:56.899Z,33.75
2018-11-22T07:35:56.892Z,33.75
2018-11-22T07:36:56.881Z,33.75
2018-11-22T07:37:56.869Z,33.75
2018-11-22T07:38:56.858Z,39.38
2018-11-22T07:39:56.845Z,39.38
2018-11-22T07:40:56.832Z,45.00
2018-11-22T07:41:56.820Z,45.00
2018-11-22T07:42:56.809Z,45.00
2018-11-22T07:43:56.803Z,50.63
2018-11-22T07:44:56.792Z,50.63
2018-11-22T07:45:56.774Z,50.63
2018-11-22T07:46:56.764Z,50.63
2018-11-22T07:47:56.758Z,50.63
2018-11-22T07:48:56.745Z,50.63
2018-11-22T07:49:56.740Z,56.25
2018-11-22T07:50:56.723Z,56.25
2018-11-22T07:51:56.707Z,56.25
2018-11-22T07:52:56.698Z,61.88
2018-11-22T07:53:56.685Z,61.88
2018-11-22T07:54:56.673Z,61.88
2018-11-22T07:55:56.668Z,67.50
2018-11-22T07:56:56.657Z,67.50
2018-11-22T07:57:56.644Z,67.50
2018-11-22T07:58:56.634Z,67.50
2018-11-22T07:59:56.619Z,73.13
2018-11-22T08:00:56.607Z,73.13
2018-11-22T08:01:56.601Z,73.13
2018-11-22T08:02:56.591Z,78.75
2018-11-22T08:03:56.574Z,78.75
2018-11-22T08:04:56.563Z,84.38
2018-11-22T08:05:56.551Z,90.00
2018-11-22T08:06:56.540Z,90.00
2018-11-22T08:07:56.535Z,90.00
2018-11-22T08:08:56.524Z,95.63
2018-11-22T08:09:56.513Z,101.25
2018-11-22T08:10:56.501Z,106.88
2018-11-22T08:11:56.487Z,112.50
2018-11-22T08:12:56.595Z,112.50
2018-11-22T08:13:56.462Z,118.13
2018-11-22T08:14:56.453Z,123.75
2018-11-22T08:15:56.446Z,129.38
2018-11-22T08:16:56.437Z,140.63
2018-11-22T08:17:56.420Z,151.88
2018-11-22T08:18:56.409Z,157.50
2018-11-22T08:19:56.402Z,163.13
2018-11-22T08:20:56.393Z,163.13
2018-11-22T08:21:56.382Z,168.75
2018-11-22T08:22:56.371Z,168.75
2018-11-22T08:23:56.355Z,174.38
2018-11-22T08:24:56.344Z,174.38
2018-11-22T08:25:56.335Z,180.00
2018-11-22T08:26:56.323Z,191.25
2018-11-22T08:27:56.316Z,208.13
2018-11-22T08:28:56.306Z,219.38
2018-11-22T08:29:56.295Z,230.63
2018-11-22T08:30:56.284Z,241.88
2018-11-22T08:31:56.270Z,241.88
2018-11-22T08:32:56.259Z,236.25
2018-11-22T08:33:56.253Z,225.00
2018-11-22T08:34:56.242Z,219.38
2018-11-22T08:35:56.228Z,219.38
2018-11-22T08:36:56.216Z,196.88
2018-11-22T08:37:56.206Z,185.63
2018-11-22T08:38:56.197Z,174.38
2018-11-22T08:39:56.191Z,168.75
2018-11-22T08:40:56.180Z,163.13
2018-11-22T08:41:56.168Z,157.50
2018-11-22T08:42:56.159Z,157.50
2018-11-22T08:43:56.143Z,163.13
2018-11-22T08:44:56.133Z,180.00
2018-11-22T08:45:56.121Z,185.63
2018-11-22T08:46:56.113Z,208.13
2018-11-22T08:47:56.108Z,219.38
2018-11-22T08:48:56.096Z,208.13
2018-11-22T08:49:56.080Z,225.00
2018-11-22T08:50:56.070Z,213.75
2018-11-22T08:51:56.064Z,213.75
2018-11-22T08:52:56.055Z,213.75
2018-11-22T08:53:56.045Z,225.00
2018-11-22T08:54:56.035Z,258.75
2018-11-22T08:55:56.021Z,258.75
2018-11-22T08:56:56.009Z,241.88
2018-11-22T08:57:55.998Z,264.38
2018-11-22T08:58:55.988Z,264.38
2018-11-22T08:59:55.984Z,230.63
2018-11-22T09:00:55.974Z,213.75
2018-11-22T09:01:55.964Z,196.88
2018-11-22T09:02:55.953Z,180.00
2018-11-22T09:03:55.940Z,191.25
2018-11-22T09:04:55.929Z,196.88
2018-11-22T09:05:55.923Z,219.38
2018-11-22T09:06:55.914Z,208.13
2018-11-22T09:07:55.901Z,196.88
2018-11-22T09:08:55.890Z,213.75
2018-11-22T09:09:56.675Z,208.13
2018-11-22T09:10:55.870Z,191.25
2018-11-22T09:11:55.866Z,208.13
2018-11-22T09:12:55.856Z,213.75
2018-11-22T09:13:55.847Z,191.25
2018-11-22T09:14:55.837Z,174.38
2018-11-22T09:15:55.821Z,146.25
2018-11-22T09:16:55.813Z,151.88
2018-11-22T09:17:55.805Z,163.13
2018-11-22T09:18:55.792Z,180.00
2018-11-22T09:19:55.788Z,185.63
2018-11-22T09:20:55.778Z,196.88
2018-11-22T09:21:55.763Z,168.75
2018-11-22T09:22:55.753Z,168.75
2018-11-22T09:23:55.750Z,168.75
2018-11-22T09:24:55.739Z,168.75
2018-11-22T09:25:55.732Z,146.25
2018-11-22T09:26:55.718Z,123.75
2018-11-22T09:27:55.705Z,118.13
2018-11-22T09:28:55.695Z,140.63
2018-11-22T09:29:55.687Z,151.88
2018-11-22T09:30:55.675Z,135.00
2018-11-22T09:31:55.671Z,123.75
2018-11-22T09:32:55.661Z,135.00
2018-11-22T09:33:55.649Z,118.13
2018-11-22T09:34:55.638Z,123.75
2018-11-22T09:35:55.624Z,135.00
2018-11-22T09:36:55.614Z,151.88
2018-11-22T09:37:55.609Z,140.63
2018-11-22T09:38:55.599Z,140.63
2018-11-22T09:39:55.585Z,157.50
2018-11-22T09:40:55.575Z,146.25
2018-11-22T09:41:55.565Z,163.13
2018-11-22T09:42:55.555Z,157.50
2018-11-22T09:43:55.549Z,163.13
2018-11-22T09:44:55.542Z,146.25
2018-11-22T09:45:55.533Z,163.13
2018-11-22T09:46:55.521Z,180.00
2018-11-22T09:47:55.506Z,174.38
2018-11-22T09:48:55.497Z,135.00
2018-11-22T09:49:55.487Z,140.63
2018-11-22T09:50:55.478Z,146.25
2018-11-22T09:51:55.472Z,140.63
2018-11-22T09:52:55.464Z,146.25
2018-11-22T09:53:55.449Z,146.25
2018-11-22T09:54:55.439Z,135.00
2018-11-22T09:55:55.435Z,146.25
2018-11-22T09:56:55.424Z,157.50
2018-11-22T09:57:55.415Z,202.50
2018-11-22T09:58:55.431Z,253.13
2018-11-22T09:59:55.391Z,264.38
2018-11-22T10:00:55.381Z,208.13
2018-11-22T10:01:55.370Z,168.75
2018-11-22T10:02:55.382Z,157.50
2018-11-22T10:03:55.360Z,135.00
2018-11-22T10:04:55.485Z,140.63
2018-11-22T10:05:55.538Z,157.50
2018-11-22T10:06:55.327Z,180.00
2018-11-22T10:07:55.313Z,180.00
2018-11-22T10:08:55.303Z,168.75
2018-11-22T10:09:55.299Z,174.38
2018-11-22T10:10:55.288Z,208.13
2018-11-22T10:11:55.274Z,208.13
2018-11-22T10:12:55.266Z,208.13
2018-11-22T10:13:55.255Z,191.25
2018-11-22T10:14:55.246Z,196.88
2018-11-22T10:15:55.242Z,180.00
2018-11-22T10:16:55.238Z,185.63
2018-11-22T10:17:55.226Z,168.75
2018-11-22T10:18:55.215Z,157.50
2018-11-22T10:19:55.200Z,151.88
2018-11-22T10:20:55.190Z,157.50
2018-11-22T10:21:55.180Z,180.00
2018-11-22T10:22:55.171Z,174.38
2018-11-22T10:23:55.308Z,168.75
2018-11-22T10:24:55.158Z,163.13
2018-11-22T10:25:55.141Z,157.50
2018-11-22T10:26:55.134Z,157.50
2018-11-22T10:27:55.130Z,146.25
2018-11-22T10:28:55.119Z,140.63
2018-11-22T10:29:55.108Z,140.63
2018-11-22T10:30:55.099Z,106.88
2018-11-22T10:31:55.086Z,118.13
2018-11-22T10:32:55.075Z,123.75
2018-11-22T10:33:55.070Z,129.38
2018-11-22T10:34:55.055Z,146.25
2018-11-22T10:35:55.052Z,163.13
2018-11-22T10:36:55.041Z,174.38
2018-11-22T10:37:55.169Z,157.50
2018-11-22T10:38:55.024Z,135.00
2018-11-22T10:39:55.008Z,123.75
2018-11-22T10:40:55.000Z,123.75
2018-11-22T10:41:54.994Z,118.13
2018-11-22T10:42:54.984Z,123.75
2018-11-22T10:43:54.971Z,118.13
2018-11-22T10:44:54.962Z,118.13
2018-11-22T10:45:54.952Z,118.13
2018-11-22T10:46:54.941Z,123.75
2018-11-22T10:47:54.936Z,129.38
2018-11-22T10:48:54.926Z,135.00
2018-11-22T10:49:54.917Z,146.25
2018-11-22T10:50:54.906Z,135.00
2018-11-22T10:51:54.892Z,135.00
2018-11-22T10:52:54.883Z,140.63
2018-11-22T10:53:54.876Z,146.25
2018-11-22T10:54:54.862Z,151.88
2018-11-22T10:55:54.860Z,180.00
2018-11-22T10:56:54.871Z,196.88
2018-11-22T10:57:54.834Z,202.50
2018-11-22T10:58:54.826Z,202.50
2018-11-22T10:59:54.821Z,213.75
2018-11-22T11:00:54.811Z,202.50
2018-11-22T11:01:54.801Z,202.50
2018-11-22T11:02:54.789Z,191.25
2018-11-22T11:03:54.775Z,180.00
2018-11-22T11:04:54.766Z,168.75
2018-11-22T11:05:54.758Z,151.88
2018-11-22T11:06:54.747Z,140.63
2018-11-22T11:07:54.742Z,135.00
2018-11-22T11:08:54.733Z,135.00
2018-11-22T11:09:54.727Z,135.00
2018-11-22T11:10:54.712Z,146.25
2018-11-22T11:11:54.698Z,157.50
2018-11-22T11:12:54.689Z,174.38
2018-11-22T11:13:54.683Z,180.00
2018-11-22T11:14:54.701Z,168.75
2018-11-22T11:15:54.659Z,168.75
2018-11-22T11:16:54.650Z,157.50
2018-11-22T11:17:54.640Z,163.13
2018-11-22T11:18:54.636Z,163.13
2018-11-22T11:19:54.625Z,168.75
2018-11-22T11:20:54.615Z,174.38
2018-11-22T11:21:54.607Z,157.50
2018-11-22T11:22:54.597Z,129.38
2018-11-22T11:23:54.586Z,129.38
2018-11-22T11:24:54.599Z,140.63
2018-11-22T11:25:54.563Z,135.00
2018-11-22T11:26:54.558Z,129.38
2018-11-22T11:27:54.556Z,129.38
2018-11-22T11:28:54.539Z,118.13
2018-11-22T11:29:54.524Z,118.13
2018-11-22T11:30:54.514Z,112.50
2018-11-22T11:31:54.509Z,118.13
2018-11-22T11:32:54.500Z,123.75
2018-11-22T11:33:54.493Z,129.38
2018-11-22T11:34:54.481Z,140.63
2018-11-22T11:35:54.466Z,146.25
2018-11-22T11:36:54.456Z,157.50
2018-11-22T11:37:54.447Z,163.13
2018-11-22T11:38:54.437Z,157.50
2018-11-22T11:39:56.889Z,163.13
2018-11-22T11:40:54.423Z,163.13
2018-11-22T11:41:54.413Z,168.75
2018-11-22T11:42:54.402Z,168.75
2018-11-22T11:43:54.391Z,174.38
2018-11-22T11:44:54.379Z,185.63
2018-11-22T11:45:54.374Z,191.25
2018-11-22T11:46:54.367Z,202.50
2018-11-22T11:47:54.351Z,219.38
2018-11-22T11:48:54.342Z,225.00
2018-11-22T11:49:54.331Z,241.88
2018-11-22T11:50:54.323Z,258.75
2018-11-22T11:51:54.319Z,270.00
2018-11-22T11:52:54.309Z,275.63
2018-11-22T11:53:54.299Z,281.25
2018-11-22T11:54:54.290Z,292.50
2018-11-22T11:55:54.277Z,298.13
2018-11-22T11:56:54.268Z,326.25
2018-11-22T11:57:54.256Z,348.75
2018-11-22T11:58:54.248Z,360.00
2018-11-22T11:59:54.243Z,348.75
2018-11-22T12:00:54.235Z,348.75
2018-11-22T12:01:54.221Z,343.13
2018-11-22T12:02:54.211Z,331.88
2018-11-22T12:03:54.208Z,326.25
2018-11-22T12:04:54.208Z,320.63
2018-11-22T12:05:54.190Z,303.75
2018-11-22T12:06:54.181Z,292.50
2018-11-22T12:07:54.167Z,281.25
2018-11-22T12:08:54.160Z,275.63
2018-11-22T12:09:56.314Z,298.13
2018-11-22T12:10:54.141Z,331.88
2018-11-22T12:11:54.138Z,326.25
2018-11-22T12:12:54.130Z,309.38
2018-11-22T12:13:54.119Z,298.13
2018-11-22T12:14:54.111Z,292.50
2018-11-22T12:15:54.097Z,286.88
2018-11-22T12:16:54.090Z,281.25
2018-11-22T12:17:54.084Z,281.25
2018-11-22T12:18:54.076Z,264.38
2018-11-22T12:19:54.063Z,258.75
2018-11-22T12:20:54.056Z,241.88
2018-11-22T12:21:54.046Z,225.00
2018-11-22T12:22:54.037Z,225.00
2018-11-22T12:23:54.034Z,225.00
2018-11-22T12:24:54.025Z,208.13
2018-11-22T12:25:54.015Z,191.25
2018-11-22T12:26:54.009Z,180.00
2018-11-22T12:27:53.994Z,180.00
2018-11-22T12:28:53.986Z,185.63
2018-11-22T12:29:53.985Z,196.88
2018-11-22T12:30:53.968Z,191.25
2018-11-22T12:31:53.966Z,185.63
2018-11-22T12:32:53.960Z,185.63
2018-11-22T12:33:53.942Z,191.25
2018-11-22T12:34:53.940Z,202.50
2018-11-22T12:35:53.936Z,208.13
2018-11-22T12:36:53.922Z,225.00
2018-11-22T12:37:53.916Z,253.13
2018-11-22T12:38:53.902Z,275.63
2018-11-22T12:39:53.889Z,298.13
2018-11-22T12:40:53.882Z,309.38
2018-11-22T12:41:53.870Z,309.38
2018-11-22T12:42:53.862Z,320.63
2018-11-22T12:43:53.858Z,331.88
2018-11-22T12:44:53.849Z,337.50
2018-11-22T12:45:53.841Z,331.88
2018-11-22T12:46:53.832Z,320.63
2018-11-22T12:47:53.819Z,315.00
2018-11-22T12:48:53.810Z,309.38
2018-11-22T12:49:53.806Z,303.75
2018-11-22T12:50:53.797Z,292.50
2018-11-22T12:51:53.784Z,286.88
2018-11-22T12:52:53.775Z,275.63
2018-11-22T12:53:53.765Z,275.63
2018-11-22T12:54:53.757Z,258.75
2018-11-22T12:55:53.754Z,247.50
2018-11-22T12:56:53.743Z,241.88